Time;durP1;ratioP1;P1;durP2;ratioP2;P2;SDS_P1;SDS_P2;PMS_P1;PMS_P2;Temp;Humidity;BMP_temperature;BMP_pressure;BME280_temperature;BME280_humidity;BME280_pressure;Samples;Min_cycle;Max_cycle;Signal;HPM_P1;HPM_P2
2023/05/10 00:01:08;;;;;;;13.55;8.63;;;13.50;99.90;;;;;;4998981;28;20414;-76
2023/05/10 00:03:33;;;;;;;11.48;8.23;;;13.50;99.90;;;;;;5001219;28;20088;-76
2023/05/10 00:05:59;;;;;;;12.27;8.88;;;13.40;99.90;;;;;;5001773;28;20042;-76
2023/05/10 00:08:25;;;;;;;10.95;8.43;;;13.40;99.90;;;;;;5001203;28;20128;-76
2023/05/10 00:10:54;;;;;;;9.80;7.90;;;13.40;99.90;;;;;;4985830;28;20053;-79
2023/05/10 00:13:19;;;;;;;13.02;8.20;;;13.40;99.90;;;;;;4985963;28;20080;-77
2023/05/10 00:15:45;;;;;;;11.00;8.00;;;13.40;99.90;;;;;;4996899;28;20176;-76
2023/05/10 00:18:11;;;;;;;10.98;7.60;;;13.40;99.90;;;;;;5017886;28;20363;-77
2023/05/10 00:20:36;;;;;;;11.07;7.32;;;13.30;99.90;;;;;;4994241;28;20057;-76
2023/05/10 00:23:02;;;;;;;10.70;7.43;;;13.30;99.90;;;;;;4979258;28;20125;-78
2023/05/10 00:25:28;;;;;;;11.52;7.90;;;13.30;99.90;;;;;;4996479;28;20783;-77
2023/05/10 00:27:56;;;;;;;11.93;7.10;;;13.30;99.90;;;;;;5000019;28;20172;-76
2023/05/10 00:30:23;;;;;;;9.32;7.25;;;13.30;99.90;;;;;;4994919;28;20135;-76
2023/05/10 00:32:49;;;;;;;9.65;7.03;;;13.30;99.90;;;;;;4995094;28;20733;-78
2023/05/10 00:35:15;;;;;;;9.50;6.95;;;13.30;99.90;;;;;;4983506;28;20053;-82
2023/05/10 00:37:42;;;;;;;9.70;7.18;;;13.20;99.90;;;;;;4994245;28;20048;-81
2023/05/10 00:40:08;;;;;;;9.13;6.55;;;13.20;99.90;;;;;;4998963;28;20053;-79
2023/05/10 00:42:34;;;;;;;9.13;6.55;;;13.20;99.90;;;;;;4997692;28;20045;-80
2023/05/10 00:44:59;;;;;;;8.55;6.50;;;13.20;99.90;;;;;;4981808;28;20541;-80
2023/05/10 00:47:25;;;;;;;9.82;7.53;;;13.20;99.90;;;;;;4997867;28;20073;-79
2023/05/10 00:49:51;;;;;;;11.45;8.05;;;13.20;99.90;;;;;;5023435;28;20081;-83
2023/05/10 00:52:17;;;;;;;10.02;7.75;;;13.20;99.90;;;;;;5004654;28;20077;-80
2023/05/10 00:54:43;;;;;;;10.80;7.57;;;13.20;99.90;;;;;;4998909;28;20100;-80
2023/05/10 00:57:09;;;;;;;9.82;7.55;;;13.10;99.90;;;;;;4989898;28;20081;-81
2023/05/10 00:59:35;;;;;;;10.15;7.72;;;13.20;99.90;;;;;;5006980;28;20084;-81
2023/05/10 01:02:01;;;;;;;11.32;8.50;;;13.10;99.90;;;;;;4999982;28;20061;-82
2023/05/10 01:04:28;;;;;;;10.52;7.88;;;13.10;99.90;;;;;;5006368;28;20490;-81
2023/05/10 01:06:54;;;;;;;11.95;7.95;;;13.10;99.90;;;;;;4991199;28;20156;-82
2023/05/10 01:09:21;;;;;;;10.88;7.88;;;13.10;99.90;;;;;;5002477;28;20122;-81
2023/05/10 01:11:48;;;;;;;10.98;7.75;;;13.00;99.90;;;;;;5003947;28;20767;-82
2023/05/10 01:14:17;;;;;;;10.70;7.85;;;13.00;99.90;;;;;;5004798;28;20125;-81
2023/05/10 01:16:45;;;;;;;9.73;7.50;;;13.00;99.90;;;;;;5006354;28;20048;-82
2023/05/10 01:19:24;;;;;;;12.63;6.82;;;13.00;99.90;;;;;;5009162;28;20054;-80
2023/05/10 01:22:08;;;;;;;9.43;7.00;;;13.00;99.90;;;;;;5009102;28;20129;-81
2023/05/10 01:25:24;;;;;;;10.32;7.07;;;13.00;99.90;;;;;;4991805;28;20046;-81
2023/05/10 01:28:14;;;;;;;9.55;6.70;;;12.90;99.90;;;;;;4977614;28;20059;-81
2023/05/10 01:30:52;;;;;;;10.23;6.47;;;12.90;99.90;;;;;;4995486;28;20132;-81
2023/05/10 01:33:52;;;;;;;9.13;6.88;;;12.90;99.90;;;;;;4998102;28;20065;-81
2023/05/10 01:36:30;;;;;;;8.65;6.47;;;12.90;99.90;;;;;;4993056;28;20046;-81
2023/05/10 01:39:38;;;;;;;7.88;5.53;;;12.90;99.90;;;;;;5013503;28;20580;-81
2023/05/10 01:42:13;;;;;;;8.65;5.93;;;12.90;99.90;;;;;;5007536;28;20053;-80
2023/05/10 01:45:10;;;;;;;8.05;6.22;;;12.90;99.90;;;;;;4987444;28;20046;-82
2023/05/10 01:47:41;;;;;;;7.30;5.90;;;12.90;99.90;;;;;;4993830;28;20044;-82
2023/05/10 01:50:10;;;;;;;;;;;12.80;99.90;;;;;;5008367;28;20380;-81
2023/05/10 01:52:45;;;;;;;8.73;6.68;;;12.90;99.90;;;;;;5004660;28;19921;-80
2023/05/10 01:55:17;;;;;;;9.85;6.53;;;12.80;99.90;;;;;;4991951;28;20056;-81
2023/05/10 01:57:46;;;;;;;9.95;5.97;;;12.80;99.90;;;;;;5006337;28;20050;-79
2023/05/10 02:00:13;;;;;;;8.43;6.45;;;12.80;99.90;;;;;;5007574;28;20061;-80
2023/05/10 02:02:46;;;;;;;8.75;6.50;;;12.80;99.90;;;;;;5007048;28;20050;-80
2023/05/10 02:05:17;;;;;;;9.40;6.97;;;12.90;99.90;;;;;;5006008;28;20054;-79
2023/05/10 02:07:44;;;;;;;10.95;7.60;;;12.80;99.90;;;;;;5006649;28;20493;-80
2023/05/10 02:10:13;;;;;;;10.00;7.25;;;12.80;99.90;;;;;;5007093;28;20053;-81
2023/05/10 02:12:45;;;;;;;11.00;7.00;;;12.80;99.90;;;;;;5000149;28;20046;-80
2023/05/10 02:15:15;;;;;;;10.07;7.40;;;12.80;99.90;;;;;;5006906;28;20057;-77
2023/05/10 02:17:43;;;;;;;11.30;8.55;;;12.80;99.90;;;;;;5003798;28;20505;-78
2023/05/10 02:20:10;;;;;;;13.48;9.15;;;12.80;99.90;;;;;;5005190;28;20057;-79
2023/05/10 02:22:36;;;;;;;13.30;9.35;;;12.70;99.90;;;;;;5005828;28;20443;-79
2023/05/10 02:25:03;;;;;;;13.77;10.20;;;12.80;99.90;;;;;;4989007;28;20054;-78
2023/05/10 02:27:29;;;;;;;15.70;9.93;;;12.80;99.90;;;;;;4989255;28;20042;-77
2023/05/10 02:29:57;;;;;;;12.73;9.68;;;12.90;99.90;;;;;;5002795;28;20054;-78
2023/05/10 02:32:26;;;;;;;13.40;10.43;;;12.80;99.90;;;;;;4986969;28;20060;-76
2023/05/10 02:34:53;;;;;;;13.70;11.25;;;12.70;99.90;;;;;;4983705;28;20514;-78
2023/05/10 02:37:20;;;;;;;13.18;10.65;;;12.70;99.90;;;;;;5002170;28;20111;-77
2023/05/10 02:39:54;;;;;;;15.38;11.95;;;12.70;99.90;;;;;;4987424;28;20050;-77
2023/05/10 02:42:26;;;;;;;14.77;11.35;;;12.90;99.90;;;;;;5004696;28;20082;-79
2023/05/10 02:44:56;;;;;;;15.02;10.90;;;12.70;99.90;;;;;;5003116;28;20041;-80
2023/05/10 02:47:22;;;;;;;13.13;10.88;;;12.70;99.90;;;;;;5001968;28;20156;-77
2023/05/10 02:49:48;;;;;;;13.63;11.27;;;12.70;99.90;;;;;;4996332;28;20058;-79
2023/05/10 02:52:19;;;;;;;14.55;11.25;;;12.70;99.90;;;;;;5002474;28;20742;-78
2023/05/10 02:54:49;;;;;;;16.65;11.75;;;12.70;99.90;;;;;;5000816;28;20050;-79
2023/05/10 02:57:33;;;;;;;15.88;12.20;;;12.70;99.90;;;;;;5004453;28;20109;-77
2023/05/10 03:00:00;;;;;;;16.88;12.77;;;12.70;99.90;;;;;;4985863;28;20284;-78
2023/05/10 03:02:26;;;;;;;14.95;11.52;;;12.70;99.90;;;;;;4985692;28;20092;-77
2023/05/10 03:04:52;;;;;;;17.00;12.20;;;12.70;99.90;;;;;;4991951;28;20112;-77
2023/05/10 03:07:21;;;;;;;16.25;12.70;;;12.70;99.90;;;;;;4985938;28;20415;-78
2023/05/10 03:09:53;;;;;;;19.65;14.15;;;12.70;99.90;;;;;;5001953;28;20061;-77
2023/05/10 03:12:22;;;;;;;19.48;14.68;;;12.70;99.90;;;;;;5000734;28;20462;-78
2023/05/10 03:15:10;;;;;;;21.45;14.50;;;12.70;99.90;;;;;;5002550;28;20646;-77
2023/05/10 03:17:47;;;;;;;22.17;15.98;;;12.70;99.90;;;;;;4999799;28;20053;-78
2023/05/10 03:20:23;;;;;;;22.58;15.07;;;12.70;99.90;;;;;;5000963;28;20111;-78
2023/05/10 03:22:55;;;;;;;22.30;15.25;;;12.60;99.90;;;;;;4995491;28;20057;-77
2023/05/10 03:25:22;;;;;;;24.83;16.25;;;12.70;99.90;;;;;;4981432;28;21136;-78
2023/05/10 03:27:49;;;;;;;25.38;16.25;;;12.70;99.90;;;;;;4977779;28;20134;-79
2023/05/10 03:30:16;;;;;;;23.45;15.38;;;12.70;99.90;;;;;;4981390;28;20042;-79
2023/05/10 03:32:42;;;;;;;23.73;15.43;;;12.60;99.90;;;;;;5002140;28;20052;-80
2023/05/10 03:35:09;;;;;;;23.83;15.43;;;12.60;99.90;;;;;;4998673;28;20050;-79
2023/05/10 03:37:35;;;;;;;23.60;15.48;;;12.60;99.90;;;;;;5001226;28;20325;-78
2023/05/10 03:40:02;;;;;;;22.73;15.23;;;12.60;99.90;;;;;;4987111;28;20511;-78
2023/05/10 03:42:28;;;;;;;26.25;15.63;;;12.60;99.90;;;;;;5000075;28;20739;-79
2023/05/10 03:44:53;;;;;;;24.45;14.60;;;12.60;99.90;;;;;;4984087;28;20132;-79
2023/05/10 03:47:20;;;;;;;24.75;14.10;;;12.60;99.90;;;;;;5004699;28;20575;-78
2023/05/10 03:49:46;;;;;;;24.17;15.23;;;12.60;99.90;;;;;;5002130;28;20038;-78
2023/05/10 03:52:14;;;;;;;23.10;15.27;;;12.80;99.90;;;;;;5000484;28;20042;-79
2023/05/10 03:54:41;;;;;;;21.80;15.13;;;12.60;99.90;;;;;;4997625;28;20124;-77
2023/05/10 03:57:07;;;;;;;25.55;14.75;;;12.60;99.90;;;;;;4995517;28;20050;-78
2023/05/10 03:59:35;;;;;;;21.05;13.98;;;12.60;99.90;;;;;;4984353;28;20052;-77
2023/05/10 04:02:01;;;;;;;23.13;13.70;;;12.60;99.90;;;;;;4999268;28;20064;-78
2023/05/10 04:04:27;;;;;;;20.92;12.52;;;12.60;99.90;;;;;;4977085;28;20043;-79
2023/05/10 04:06:53;;;;;;;16.58;10.95;;;12.60;99.90;;;;;;4982247;28;20054;-78
2023/05/10 04:09:18;;;;;;;14.85;8.82;;;12.60;99.90;;;;;;4997449;28;20057;-78
2023/05/10 04:11:47;;;;;;;10.32;6.63;;;12.60;99.90;;;;;;4996339;28;20034;-76
2023/05/10 04:14:12;;;;;;;8.65;5.18;;;12.60;99.90;;;;;;4998629;28;20057;-78
2023/05/10 04:16:38;;;;;;;9.38;5.47;;;12.60;99.90;;;;;;4998183;28;20041;-78
2023/05/10 04:19:04;;;;;;;10.65;5.25;;;12.50;99.90;;;;;;4999081;28;20049;-75
2023/05/10 04:21:30;;;;;;;7.03;4.15;;;12.50;99.90;;;;;;4982469;28;20125;-75
2023/05/10 04:23:56;;;;;;;6.30;3.47;;;12.50;99.90;;;;;;4977387;28;20495;-78
2023/05/10 04:26:21;;;;;;;7.03;3.03;;;12.50;99.90;;;;;;4989621;28;20065;-77
2023/05/10 04:28:48;;;;;;;6.68;3.33;;;12.50;99.90;;;;;;4998187;28;20155;-78
2023/05/10 04:31:16;;;;;;;7.80;3.20;;;12.60;99.90;;;;;;4991462;28;20665;-77
2023/05/10 04:33:42;;;;;;;10.20;3.50;;;12.50;99.90;;;;;;4990310;28;20065;-76
2023/05/10 04:36:08;;;;;;;7.05;3.75;;;12.50;99.90;;;;;;4990512;28;20797;-78
2023/05/10 04:38:33;;;;;;;6.25;3.42;;;12.40;99.90;;;;;;4994867;28;20140;-78
2023/05/10 04:41:09;;;;;;;5.88;3.22;;;12.40;99.90;;;;;;4995736;28;20416;-78
2023/05/10 04:43:36;;;;;;;7.95;3.67;;;12.40;99.90;;;;;;4979556;28;20082;-76
2023/05/10 04:46:02;;;;;;;8.27;4.00;;;12.40;99.90;;;;;;4993021;28;20084;-76
2023/05/10 04:48:28;;;;;;;7.25;4.13;;;12.40;99.90;;;;;;4978919;28;20058;-77
2023/05/10 04:50:54;;;;;;;8.35;4.78;;;12.40;99.90;;;;;;5020260;28;20049;-79
2023/05/10 04:53:20;;;;;;;9.63;4.65;;;12.40;99.90;;;;;;4998110;28;20092;-77
2023/05/10 04:55:46;;;;;;;7.72;4.55;;;12.40;99.90;;;;;;5004275;28;20068;-80
2023/05/10 04:58:12;;;;;;;10.52;5.10;;;12.40;99.90;;;;;;4997044;28;20062;-78
2023/05/10 05:00:38;;;;;;;9.75;5.15;;;12.40;99.90;;;;;;4997040;28;20042;-78
2023/05/10 05:03:04;;;;;;;9.88;4.95;;;12.40;99.90;;;;;;5002517;28;20041;-77
2023/05/10 05:05:29;;;;;;;8.35;5.10;;;12.40;99.90;;;;;;5006624;28;20057;-76
2023/05/10 05:07:56;;;;;;;12.95;5.75;;;12.40;99.90;;;;;;4980675;28;20120;-80
2023/05/10 05:10:21;;;;;;;10.65;5.22;;;12.40;99.90;;;;;;5000475;28;20323;-78
2023/05/10 05:12:47;;;;;;;9.88;5.80;;;12.40;99.90;;;;;;4999206;28;20049;-80
2023/05/10 05:15:13;;;;;;;9.02;5.40;;;12.40;99.90;;;;;;4991131;28;20049;-77
2023/05/10 05:17:39;;;;;;;9.77;5.30;;;12.40;99.90;;;;;;4997483;28;20034;-78
2023/05/10 05:20:05;;;;;;;12.23;5.70;;;12.40;99.90;;;;;;4993622;28;20046;-78
2023/05/10 05:22:31;;;;;;;9.82;6.05;;;12.40;99.90;;;;;;4994913;28;20038;-79
2023/05/10 05:24:58;;;;;;;10.13;5.93;;;12.40;99.90;;;;;;4994835;28;20054;-78
2023/05/10 05:27:25;;;;;;;10.30;5.88;;;12.40;99.90;;;;;;4985660;28;20107;-79
2023/05/10 05:29:55;;;;;;;11.50;6.07;;;12.40;99.90;;;;;;4972544;28;20042;-78
2023/05/10 05:32:22;;;;;;;9.35;5.53;;;12.40;99.90;;;;;;4992006;28;20046;-78
2023/05/10 05:34:48;;;;;;;8.80;5.32;;;12.30;99.90;;;;;;4988958;28;20131;-78
2023/05/10 05:37:16;;;;;;;10.18;5.65;;;12.40;99.90;;;;;;4987515;28;20400;-78
2023/05/10 05:39:43;;;;;;;12.15;6.38;;;12.40;99.90;;;;;;4990841;28;20533;-78
2023/05/10 05:42:09;;;;;;;12.60;5.50;;;12.40;99.90;;;;;;4991674;28;20140;-78
2023/05/10 05:44:35;;;;;;;9.82;5.50;;;12.40;99.90;;;;;;4975869;28;20054;-76
2023/05/10 05:47:01;;;;;;;9.88;5.25;;;12.40;99.90;;;;;;4974707;28;20109;-76
2023/05/10 05:49:26;;;;;;;11.23;6.63;;;12.40;99.90;;;;;;5004950;28;20049;-77
2023/05/10 05:51:52;;;;;;;11.18;5.72;;;12.40;99.90;;;;;;4992028;28;20578;-79
2023/05/10 05:54:18;;;;;;;10.63;6.18;;;12.40;99.90;;;;;;4977660;28;20108;-79
2023/05/10 05:56:47;;;;;;;10.45;6.47;;;12.50;99.90;;;;;;4997978;28;20045;-77
2023/05/10 05:59:13;;;;;;;10.15;6.07;;;12.40;99.90;;;;;;4993144;28;20072;-78
2023/05/10 06:01:38;;;;;;;13.05;6.30;;;12.40;99.90;;;;;;4992753;28;20829;-76
2023/05/10 06:04:04;;;;;;;12.75;7.95;;;12.40;99.90;;;;;;4992475;28;20318;-75
2023/05/10 06:06:30;;;;;;;16.08;8.65;;;12.40;99.90;;;;;;4995775;28;20120;-77
2023/05/10 06:08:56;;;;;;;17.60;10.85;;;12.40;99.90;;;;;;5000590;28;20049;-77
2023/05/10 06:11:21;;;;;;;19.40;11.13;;;12.40;99.90;;;;;;4996218;28;20073;-76
2023/05/10 06:13:47;;;;;;;19.95;10.93;;;12.40;99.90;;;;;;4998573;28;20045;-76
2023/05/10 06:16:13;;;;;;;19.60;12.15;;;12.40;99.90;;;;;;4972129;28;20134;-76
2023/05/10 06:18:39;;;;;;;22.60;13.13;;;12.40;99.90;;;;;;4993865;28;20077;-77
2023/05/10 06:21:05;;;;;;;17.00;10.90;;;12.30;99.90;;;;;;4999036;28;20129;-78
2023/05/10 06:23:30;;;;;;;15.85;11.13;;;12.30;99.90;;;;;;4976660;28;20144;-76
2023/05/10 06:25:56;;;;;;;18.05;11.93;;;12.40;99.90;;;;;;4997036;28;20080;-78
2023/05/10 06:28:22;;;;;;;17.77;11.48;;;12.30;99.90;;;;;;4998653;28;20046;-78
2023/05/10 06:30:48;;;;;;;15.48;10.50;;;12.60;99.90;;;;;;4996648;28;20065;-77
2023/05/10 06:33:14;;;;;;;13.50;8.77;;;12.40;99.90;;;;;;5000731;28;20037;-76
2023/05/10 06:35:40;;;;;;;12.48;7.00;;;12.30;99.90;;;;;;5002945;28;20498;-76
2023/05/10 06:38:06;;;;;;;9.15;5.25;;;12.30;99.90;;;;;;5000178;28;20048;-77
2023/05/10 06:40:32;;;;;;;9.38;4.45;;;12.30;99.90;;;;;;5001829;28;20380;-76
2023/05/10 06:42:58;;;;;;;7.18;3.85;;;12.30;99.90;;;;;;5002936;28;20545;-77
2023/05/10 06:45:24;;;;;;;10.40;3.60;;;12.30;99.90;;;;;;4981593;28;20078;-76
2023/05/10 06:47:50;;;;;;;5.85;3.35;;;12.30;99.90;;;;;;5001344;28;20128;-77
2023/05/10 06:50:16;;;;;;;5.90;2.92;;;12.30;99.90;;;;;;5003714;28;20049;-78
2023/05/10 06:52:42;;;;;;;4.38;2.38;;;12.30;99.90;;;;;;5001057;28;20045;-77
2023/05/10 06:55:08;;;;;;;4.60;2.33;;;12.30;99.90;;;;;;4997141;28;20200;-77
2023/05/10 06:57:34;;;;;;;4.72;2.42;;;12.30;99.90;;;;;;4992931;28;20131;-76
2023/05/10 07:00:01;;;;;;;5.80;2.88;;;12.30;99.90;;;;;;4996744;28;20057;-76
2023/05/10 07:02:26;;;;;;;4.90;2.88;;;12.30;99.90;;;;;;4997032;28;20041;-77
2023/05/10 07:04:52;;;;;;;5.45;2.75;;;12.30;99.90;;;;;;5014876;28;20119;-79
2023/05/10 07:07:18;;;;;;;5.28;2.70;;;12.50;99.90;;;;;;4983562;28;20495;-77
2023/05/10 07:09:45;;;;;;;5.35;2.80;;;12.20;99.90;;;;;;5001318;28;20092;-76
2023/05/10 07:12:11;;;;;;;4.90;2.70;;;12.20;99.90;;;;;;4999400;28;20301;-77
2023/05/10 07:14:37;;;;;;;6.13;3.05;;;12.30;99.90;;;;;;4983209;28;20108;-75
2023/05/10 07:17:03;;;;;;;5.75;3.28;;;12.30;99.90;;;;;;4998843;28;20678;-76
2023/05/10 07:19:29;;;;;;;5.47;3.45;;;12.30;99.90;;;;;;4970347;28;20064;-77
2023/05/10 07:21:55;;;;;;;5.68;3.58;;;12.30;99.90;;;;;;4981260;28;20159;-77
2023/05/10 07:24:21;;;;;;;6.90;3.42;;;12.30;99.90;;;;;;4967471;28;20058;-78
2023/05/10 07:26:46;;;;;;;5.82;3.20;;;12.40;99.90;;;;;;4988611;28;20565;-78
2023/05/10 07:29:12;;;;;;;6.60;3.90;;;12.40;99.90;;;;;;4971362;28;20192;-75
2023/05/10 07:31:38;;;;;;;5.38;3.25;;;12.40;99.90;;;;;;4987855;28;20811;-77
2023/05/10 07:34:05;;;;;;;5.43;3.40;;;12.40;99.90;;;;;;4984106;28;20065;-77
2023/05/10 07:36:34;;;;;;;5.57;3.20;;;12.40;99.90;;;;;;4985120;28;20078;-76
2023/05/10 07:39:03;;;;;;;;;;;12.50;99.90;;;;;;4986796;28;20168;-77
2023/05/10 07:41:28;;;;;;;6.05;3.35;;;12.40;99.90;;;;;;4993038;28;20315;-78
2023/05/10 07:43:54;;;;;;;5.85;3.22;;;12.50;99.90;;;;;;4994664;28;20054;-77
2023/05/10 07:46:20;;;;;;;6.95;3.58;;;12.40;99.90;;;;;;4980274;28;20149;-77
2023/05/10 07:48:47;;;;;;;5.70;3.50;;;12.50;99.90;;;;;;4978343;28;20051;-77
2023/05/10 07:51:17;;;;;;;7.15;3.60;;;12.40;99.90;;;;;;4960325;28;20647;-79
2023/05/10 07:53:48;;;;;;;6.20;3.47;;;12.50;99.90;;;;;;4970663;28;20046;-77
2023/05/10 07:56:27;;;;;;;7.38;3.70;;;12.40;99.90;;;;;;4973215;28;20041;-78
2023/05/10 07:58:55;;;;;;;6.72;3.55;;;12.50;99.90;;;;;;4977719;28;20569;-77
2023/05/10 08:01:22;;;;;;;7.25;4.25;;;12.50;99.90;;;;;;4960812;28;20049;-78
2023/05/10 08:03:48;;;;;;;6.05;3.97;;;12.50;99.90;;;;;;4988068;28;20388;-77
2023/05/10 08:06:18;;;;;;;7.30;3.92;;;12.50;99.90;;;;;;4982518;28;20092;-77
2023/05/10 08:08:53;;;;;;;6.03;3.92;;;12.50;99.90;;;;;;4971394;28;20050;-76
2023/05/10 08:11:20;;;;;;;7.95;4.15;;;12.50;99.90;;;;;;4976800;28;20077;-75
2023/05/10 08:13:52;;;;;;;6.35;3.88;;;12.60;99.90;;;;;;4982879;28;20050;-77
2023/05/10 08:16:23;;;;;;;7.18;4.30;;;12.50;99.90;;;;;;4983098;28;20045;-79
2023/05/10 08:18:55;;;;;;;7.90;5.30;;;12.50;99.90;;;;;;4985206;28;20058;-77
2023/05/10 08:21:23;;;;;;;9.43;5.10;;;12.60;99.90;;;;;;4981340;28;20050;-77
2023/05/10 08:23:49;;;;;;;9.30;5.47;;;12.60;99.90;;;;;;4969351;28;20100;-78
2023/05/10 08:26:17;;;;;;;8.70;5.53;;;12.60;99.90;;;;;;4988811;28;20499;-79
2023/05/10 08:28:43;;;;;;;8.70;5.80;;;12.50;99.90;;;;;;4987937;28;20057;-78
2023/05/10 08:31:09;;;;;;;7.95;5.30;;;12.60;99.90;;;;;;4980552;28;20057;-76
2023/05/10 08:33:35;;;;;;;8.63;5.43;;;12.60;99.90;;;;;;4990005;28;20069;-77
2023/05/10 08:36:01;;;;;;;9.43;5.22;;;12.60;99.90;;;;;;4984450;28;20177;-78
2023/05/10 08:38:26;;;;;;;12.52;6.25;;;12.60;99.90;;;;;;4987909;28;20889;-77
2023/05/10 08:40:56;;;;;;;10.68;6.80;;;12.60;99.90;;;;;;4982157;28;20042;-75
2023/05/10 08:43:25;;;;;;;10.27;5.95;;;12.60;99.90;;;;;;4988655;28;20545;-79
2023/05/10 08:45:54;;;;;;;9.30;6.65;;;12.60;99.90;;;;;;4969516;28;20077;-80
2023/05/10 08:48:21;;;;;;;9.05;5.95;;;12.60;99.90;;;;;;4987518;28;20700;-77
2023/05/10 08:50:48;;;;;;;11.15;7.13;;;12.70;99.90;;;;;;4984429;28;20053;-78
2023/05/10 08:53:16;;;;;;;10.20;6.95;;;12.70;99.90;;;;;;4971626;28;20502;-76
2023/05/10 08:55:42;;;;;;;11.10;7.05;;;12.70;99.90;;;;;;4983763;28;20232;-77
2023/05/10 08:58:09;;;;;;;11.15;7.63;;;12.70;99.90;;;;;;4950478;28;20559;-76
2023/05/10 09:00:39;;;;;;;10.82;6.45;;;12.70;99.90;;;;;;4975562;28;21154;-78
2023/05/10 09:03:07;;;;;;;9.98;6.20;;;12.70;99.90;;;;;;4968385;28;20049;-79
2023/05/10 09:05:33;;;;;;;10.70;5.90;;;12.70;99.90;;;;;;4992806;28;20089;-78
2023/05/10 09:08:00;;;;;;;10.48;6.50;;;12.70;99.90;;;;;;4990458;28;20486;-78
2023/05/10 09:10:27;;;;;;;10.10;6.53;;;12.70;99.90;;;;;;4988936;28;20050;-78
2023/05/10 09:12:55;;;;;;;12.73;6.13;;;12.80;99.90;;;;;;4991821;28;20057;-77
2023/05/10 09:15:21;;;;;;;10.60;6.32;;;12.80;99.90;;;;;;4975681;28;20100;-78
2023/05/10 09:17:49;;;;;;;8.70;6.22;;;12.80;99.90;;;;;;4994788;28;20053;-77
2023/05/10 09:20:17;;;;;;;9.98;6.53;;;12.80;99.90;;;;;;4964809;28;20061;-79
2023/05/10 09:22:43;;;;;;;11.93;6.03;;;12.90;99.90;;;;;;4994350;28;20589;-78
2023/05/10 09:25:16;;;;;;;9.38;6.10;;;12.90;99.90;;;;;;4975376;28;20065;-77
2023/05/10 09:27:45;;;;;;;10.35;6.30;;;12.90;99.90;;;;;;4993929;28;20050;-77
2023/05/10 09:30:16;;;;;;;13.52;7.00;;;12.90;99.90;;;;;;4988131;28;20092;-77
2023/05/10 09:32:48;;;;;;;11.65;6.70;;;12.90;99.90;;;;;;4993716;28;20045;-77
2023/05/10 09:35:20;;;;;;;9.77;6.60;;;12.90;99.90;;;;;;4994378;28;20042;-78
2023/05/10 09:37:47;;;;;;;;;;;13.00;99.90;;;;;;4977378;28;20499;-78
2023/05/10 09:40:17;;;;;;;11.25;6.63;;;13.00;99.90;;;;;;4987743;28;20382;-78
2023/05/10 09:43:03;;;;;;;9.80;6.25;;;13.10;99.90;;;;;;4977609;28;20116;-77
2023/05/10 09:45:31;;;;;;;10.65;6.38;;;13.00;99.90;;;;;;4991280;28;20466;-79
2023/05/10 09:47:58;;;;;;;10.00;5.78;;;13.10;99.90;;;;;;4995312;28;20058;-80
2023/05/10 09:50:25;;;;;;;10.30;6.15;;;13.10;99.90;;;;;;4968658;28;20053;-77
2023/05/10 09:52:51;;;;;;;9.07;5.53;;;13.20;99.90;;;;;;4993907;28;20099;-77
2023/05/10 09:55:19;;;;;;;8.55;5.25;;;13.20;99.90;;;;;;4979742;28;20821;-77
2023/05/10 09:57:47;;;;;;;8.27;5.20;;;13.30;99.90;;;;;;4973893;28;20053;-80
2023/05/10 10:00:20;;;;;;;7.82;4.95;;;13.30;99.90;;;;;;4962446;28;20048;-76
2023/05/10 10:02:55;;;;;;;7.43;4.68;;;13.40;99.90;;;;;;4972274;28;20499;-77
2023/05/10 10:05:27;;;;;;;8.13;5.03;;;13.30;99.90;;;;;;4976051;28;20069;-78
2023/05/10 10:07:53;;;;;;;7.90;4.40;;;13.30;99.90;;;;;;4989761;28;20612;-76
2023/05/10 10:10:19;;;;;;;6.97;4.03;;;13.30;99.90;;;;;;5000767;28;20049;-79
2023/05/10 10:12:47;;;;;;;10.20;4.68;;;13.30;99.90;;;;;;4998342;28;20049;-78
2023/05/10 10:15:13;;;;;;;7.55;4.70;;;13.40;99.90;;;;;;4975463;28;20135;-77
2023/05/10 10:17:40;;;;;;;9.50;5.40;;;13.40;99.90;;;;;;4974410;28;20944;-77
2023/05/10 10:20:07;;;;;;;7.97;5.28;;;13.40;99.90;;;;;;4986287;28;20551;-77
2023/05/10 10:22:33;;;;;;;8.80;5.07;;;13.40;99.90;;;;;;4991399;28;20572;-76
2023/05/10 10:24:59;;;;;;;8.82;5.13;;;13.40;99.90;;;;;;4989739;28;20115;-76
2023/05/10 10:27:37;;;;;;;7.40;4.28;;;13.60;99.90;;;;;;4986560;28;20446;-77
2023/05/10 10:30:36;;;;;;;7.00;4.65;;;13.50;99.90;;;;;;4981516;28;20046;-77
2023/05/10 10:33:27;;;;;;;8.50;4.93;;;13.60;99.90;;;;;;4993236;28;20053;-77
2023/05/10 10:35:54;;;;;;;7.07;4.57;;;13.50;99.90;;;;;;4972389;28;20072;-78
2023/05/10 10:38:21;;;;;;;7.97;5.00;;;13.60;99.90;;;;;;4986963;28;20050;-77
2023/05/10 10:40:47;;;;;;;7.00;4.70;;;13.60;99.90;;;;;;4981782;28;20061;-78
2023/05/10 10:43:27;;;;;;;8.50;4.95;;;13.70;99.90;;;;;;4972831;28;20625;-77
2023/05/10 10:46:16;;;;;;;10.13;5.68;;;13.70;99.90;;;;;;4987368;28;20136;-76
2023/05/10 10:48:49;;;;;;;9.05;5.60;;;13.70;99.90;;;;;;4976104;28;20193;-77
2023/05/10 10:51:15;;;;;;;8.95;5.95;;;13.70;99.90;;;;;;4979813;28;20513;-78
2023/05/10 10:53:41;;;;;;;10.65;6.25;;;13.70;99.90;;;;;;4984334;28;20042;-78
2023/05/10 10:56:13;;;;;;;11.25;6.88;;;13.70;99.90;;;;;;4985996;28;20269;-77
2023/05/10 10:58:41;;;;;;;10.77;6.38;;;13.80;99.90;;;;;;4986599;28;20050;-77
2023/05/10 11:01:17;;;;;;;12.27;7.40;;;13.70;99.90;;;;;;4976173;28;20086;-77
2023/05/10 11:04:15;;;;;;;10.73;6.13;;;13.80;99.90;;;;;;4989558;28;20049;-78
2023/05/10 11:06:42;;;;;;;12.15;7.35;;;13.70;99.90;;;;;;4993099;28;20079;-77
2023/05/10 11:09:10;;;;;;;11.20;6.93;;;13.80;99.90;;;;;;4989267;28;20470;-77
2023/05/10 11:11:48;;;;;;;9.80;6.60;;;13.70;99.90;;;;;;4958205;28;20394;-78
2023/05/10 11:14:13;;;;;;;10.98;7.55;;;13.80;99.90;;;;;;4985161;28;20057;-77
2023/05/10 11:16:43;;;;;;;11.93;6.82;;;13.80;99.90;;;;;;4968916;28;20050;-77
2023/05/10 11:19:12;;;;;;;10.52;6.43;;;13.80;99.90;;;;;;4975837;28;20085;-77
2023/05/10 11:22:05;;;;;;;11.70;6.47;;;13.80;99.90;;;;;;4968185;28;20784;-77
2023/05/10 11:24:35;;;;;;;10.82;6.80;;;13.80;99.90;;;;;;4974091;28;20069;-78
2023/05/10 11:27:02;;;;;;;9.88;6.13;;;13.80;99.90;;;;;;4979305;28;20057;-77
2023/05/10 11:29:37;;;;;;;10.60;6.47;;;13.80;99.90;;;;;;4979611;28;20057;-77
2023/05/10 11:32:08;;;;;;;10.00;5.75;;;13.80;99.90;;;;;;4967890;28;20045;-78
2023/05/10 11:34:33;;;;;;;11.80;6.53;;;13.80;99.90;;;;;;4982632;28;20061;-77
2023/05/10 11:37:01;;;;;;;10.05;6.80;;;13.80;99.90;;;;;;4975237;28;20449;-78
2023/05/10 11:39:36;;;;;;;12.60;6.80;;;13.80;99.90;;;;;;4976037;28;20605;-77
2023/05/10 11:42:09;;;;;;;11.25;6.85;;;13.80;99.90;;;;;;4966819;28;20422;-78
2023/05/10 11:44:38;;;;;;;13.90;7.63;;;13.80;99.90;;;;;;4961034;28;20504;-77
2023/05/10 11:47:08;;;;;;;;;;;14.10;99.90;;;;;;4977209;28;20054;-78
2023/05/10 11:49:39;;;;;;;13.18;8.15;;;13.80;99.90;;;;;;4966641;28;20003;-78
2023/05/10 11:52:11;;;;;;;15.60;8.95;;;13.80;99.90;;;;;;4979752;28;20569;-78
2023/05/10 11:54:38;;;;;;;13.18;7.30;;;13.90;99.90;;;;;;4963921;28;20076;-78
2023/05/10 11:57:03;;;;;;;11.95;7.50;;;13.90;99.90;;;;;;4989628;28;20054;-78
2023/05/10 11:59:37;;;;;;;14.40;7.53;;;13.90;99.90;;;;;;4980870;28;20054;-76
2023/05/10 12:02:06;;;;;;;17.10;8.05;;;13.90;99.90;;;;;;4987989;28;20112;-77
2023/05/10 12:04:32;;;;;;;12.43;7.75;;;14.00;99.90;;;;;;4990191;28;20050;-78
2023/05/10 12:06:58;;;;;;;11.95;7.50;;;14.00;99.90;;;;;;4978485;28;20725;-77
2023/05/10 12:09:30;;;;;;;14.18;7.20;;;14.00;99.90;;;;;;4973226;28;20041;-77
2023/05/10 12:12:05;;;;;;;12.10;7.65;;;14.20;99.90;;;;;;4967734;28;20061;-79
2023/05/10 12:14:35;;;;;;;15.55;7.47;;;14.00;99.90;;;;;;4967301;28;20891;-78
2023/05/10 12:17:01;;;;;;;12.55;7.30;;;14.30;99.90;;;;;;4969154;28;20517;-78
2023/05/10 12:19:27;;;;;;;15.15;7.63;;;14.10;99.90;;;;;;4971686;28;20134;-77
2023/05/10 12:21:52;;;;;;;10.73;6.80;;;14.10;99.90;;;;;;4974851;28;20038;-77
2023/05/10 12:24:19;;;;;;;10.82;6.63;;;14.10;99.90;;;;;;5008747;28;20901;-77
2023/05/10 12:26:48;;;;;;;14.43;6.63;;;14.20;99.90;;;;;;4990115;28;20046;-77
2023/05/10 12:29:18;;;;;;;11.85;6.82;;;14.10;99.90;;;;;;4990256;28;20042;-78
2023/05/10 12:31:56;;;;;;;10.60;7.40;;;14.20;99.90;;;;;;4990893;28;20084;-77
2023/05/10 12:34:33;;;;;;;12.95;7.18;;;14.20;99.90;;;;;;4973254;28;20064;-78
2023/05/10 12:37:00;;;;;;;10.25;6.53;;;14.20;99.90;;;;;;4991839;28;20484;-76
2023/05/10 12:39:26;;;;;;;11.98;6.45;;;14.20;99.90;;;;;;4971018;28;20058;-77
2023/05/10 12:41:52;;;;;;;10.40;6.20;;;14.20;99.90;;;;;;4992509;28;20100;-76
2023/05/10 12:44:20;;;;;;;10.00;6.57;;;14.20;99.90;;;;;;4987253;28;20467;-78
2023/05/10 12:46:47;;;;;;;13.30;7.05;;;14.30;99.90;;;;;;4979423;28;20104;-77
2023/05/10 12:49:13;;;;;;;12.90;7.28;;;14.20;99.90;;;;;;4991074;28;20514;-76